Time;durP1;ratioP1;P1;durP2;ratioP2;P2;SDS_P1;SDS_P2;PMS_P1;PMS_P2;Temp;Humidity;BMP_temperature;BMP_pressure;BME280_temperature;BME280_humidity;BME280_pressure;Samples;Min_cycle;Max_cycle;Signal;HPM_P1;HPM_P2
2024/04/08 00:00:59;;;;;;;15.13;3.10;;;;;;;17.74;72.66;96172.84;5455062;26;19999;-66
2024/04/08 00:03:25;;;;;;;13.85;3.03;;;;;;;17.58;78.56;96170.78;5425846;26;20013;-68
2024/04/08 00:05:50;;;;;;;12.38;3.03;;;;;;;17.36;88.55;96175.94;5432263;26;20007;-68
2024/04/08 00:08:16;;;;;;;10.60;3.20;;;;;;;17.10;95.17;96169.28;5409344;26;20010;-66
2024/04/08 00:10:42;;;;;;;14.20;3.78;;;;;;;16.85;99.41;96164.19;5430744;26;20083;-66
2024/04/08 00:13:07;;;;;;;13.85;4.28;;;;;;;16.54;100.00;96169.78;5421443;26;20079;-65
2024/04/08 00:15:33;;;;;;;18.63;3.75;;;;;;;16.37;100.00;96166.13;5430383;26;20518;-67
2024/04/08 00:17:58;;;;;;;14.48;3.60;;;;;;;16.29;100.00;96159.91;5431111;26;20006;-67
2024/04/08 00:20:24;;;;;;;11.88;3.25;;;;;;;16.26;100.00;96166.28;5426821;26;20071;-66
2024/04/08 00:22:52;;;;;;;17.73;3.45;;;;;;;16.13;100.00;96162.50;5431594;26;19995;-67
2024/04/08 00:25:18;;;;;;;15.27;3.22;;;;;;;16.06;100.00;96166.13;5411469;26;20014;-67
2024/04/08 00:27:44;;;;;;;16.88;3.30;;;;;;;15.89;100.00;96172.69;5458121;26;20003;-68
2024/04/08 00:30:10;;;;;;;16.40;3.33;;;;;;;15.80;100.00;96165.69;5423301;26;20030;-67
2024/04/08 00:32:35;;;;;;;13.13;2.85;;;;;;;15.49;100.00;96162.88;5417616;26;20007;-67
2024/04/08 00:35:00;;;;;;;14.00;3.05;;;;;;;15.36;100.00;96164.63;5430284;26;20054;-67
2024/04/08 00:37:26;;;;;;;18.30;6.30;;;;;;;15.34;100.00;96174.47;5425454;26;20014;-68
2024/04/08 00:39:51;;;;;;;15.88;4.93;;;;;;;15.39;100.00;96177.56;5429274;26;20863;-69
2024/04/08 00:42:17;;;;;;;17.13;4.05;;;;;;;15.48;100.00;96174.31;5425773;26;20010;-68
2024/04/08 00:44:43;;;;;;;16.70;4.05;;;;;;;15.36;100.00;96183.13;5432210;26;20704;-70
2024/04/08 00:47:10;;;;;;;17.08;4.13;;;;;;;15.48;100.00;96182.59;5415622;26;20019;-66
2024/04/08 00:49:36;;;;;;;18.15;3.30;;;;;;;15.47;100.00;96190.13;5426864;26;20006;-70
2024/04/08 00:52:02;;;;;;;12.20;4.68;;;;;;;15.55;100.00;96195.56;5428662;26;19999;-72
2024/04/08 00:54:28;;;;;;;12.70;3.35;;;;;;;15.55;100.00;96190.03;5432212;26;20013;-67
2024/04/08 00:56:55;;;;;;;16.38;4.70;;;;;;;15.58;100.00;96184.47;5431038;26;19999;-68
2024/04/08 00:59:22;;;;;;;13.85;3.10;;;;;;;15.58;100.00;96192.75;5423878;26;20543;-67
2024/04/08 01:01:49;;;;;;;16.85;2.88;;;;;;;15.51;100.00;96194.81;5439008;26;20039;-66
2024/04/08 01:04:14;;;;;;;14.65;2.88;;;;;;;15.37;100.00;96193.00;5422447;26;19998;-68
2024/04/08 01:06:40;;;;;;;13.95;2.90;;;;;;;15.25;100.00;96192.31;5427882;26;20010;-68
2024/04/08 01:09:05;;;;;;;15.18;3.53;;;;;;;15.14;100.00;96188.88;5423092;26;20022;-67
2024/04/08 01:11:31;;;;;;;13.25;2.90;;;;;;;15.10;100.00;96188.13;5430919;26;20432;-69
2024/04/08 01:13:57;;;;;;;15.30;3.05;;;;;;;15.04;100.00;96198.03;5431106;26;20010;-68
2024/04/08 01:16:23;;;;;;;11.93;2.67;;;;;;;15.05;100.00;96188.56;5407761;26;20135;-68
2024/04/08 01:18:48;;;;;;;13.07;3.03;;;;;;;15.16;100.00;96189.25;5460546;26;20071;-68
2024/04/08 01:21:13;;;;;;;16.83;3.63;;;;;;;15.10;100.00;96186.16;5426689;26;20050;-68
2024/04/08 01:23:42;;;;;;;15.40;3.15;;;;;;;15.19;100.00;96185.66;5431028;26;20096;-67
2024/04/08 01:26:08;;;;;;;17.17;3.75;;;;;;;15.24;100.00;96188.00;5396831;26;20002;-68
2024/04/08 01:28:34;;;;;;;13.75;3.38;;;;;;;15.19;100.00;96179.38;5433483;26;20009;-68
2024/04/08 01:31:03;;;;;;;16.63;3.35;;;;;;;15.20;100.00;96178.97;5436849;26;20003;-68
2024/04/08 01:33:32;;;;;;;15.25;3.42;;;;;;;15.21;100.00;96183.28;5433665;26;20006;-68
2024/04/08 01:36:03;;;;;;;16.50;3.47;;;;;;;15.14;100.00;96179.81;5433610;26;19999;-69
2024/04/08 01:38:29;;;;;;;14.27;2.75;;;;;;;15.07;100.00;96177.91;5419261;26;20014;-68
2024/04/08 01:40:55;;;;;;;12.15;2.83;;;;;;;14.86;100.00;96179.69;5428533;26;20000;-67
2024/04/08 01:43:21;;;;;;;12.95;2.80;;;;;;;14.86;100.00;96176.16;5403991;26;20558;-67
2024/04/08 01:45:47;;;;;;;11.90;2.75;;;;;;;14.84;100.00;96179.31;5435193;26;20005;-68
2024/04/08 01:48:12;;;;;;;20.95;3.08;;;;;;;14.70;100.00;96182.97;5420466;26;20017;-68
2024/04/08 01:50:37;;;;;;;11.13;2.50;;;;;;;14.70;100.00;96174.69;5434778;26;20002;-68
2024/04/08 01:53:03;;;;;;;13.20;3.00;;;;;;;14.62;100.00;96169.63;5429685;26;20022;-67
2024/04/08 01:55:29;;;;;;;16.50;2.88;;;;;;;14.46;100.00;96178.41;5433819;26;20007;-68
2024/04/08 01:57:54;;;;;;;15.50;3.03;;;;;;;14.32;100.00;96162.75;5432781;26;20464;-68
2024/04/08 02:00:20;;;;;;;10.05;3.10;;;;;;;14.31;100.00;96163.94;5410874;26;20010;-68
2024/04/08 02:02:45;;;;;;;19.98;3.22;;;;;;;14.42;100.00;96163.84;5429969;26;19995;-68
2024/04/08 02:05:11;;;;;;;12.20;3.00;;;;;;;14.50;100.00;96165.38;5429575;26;19995;-69
2024/04/08 02:07:38;;;;;;;16.13;3.15;;;;;;;14.50;100.00;96163.41;5421922;26;20015;-69
2024/04/08 02:10:04;;;;;;;13.90;2.90;;;;;;;14.49;100.00;96164.59;5421643;26;20085;-66
2024/04/08 02:12:29;;;;;;;14.30;3.20;;;;;;;14.26;100.00;96159.66;5430657;26;20466;-68
2024/04/08 02:14:54;;;;;;;14.30;3.60;;;;;;;14.13;100.00;96162.09;5462981;26;20013;-68
2024/04/08 02:17:20;;;;;;;15.25;3.03;;;;;;;14.09;100.00;96163.28;5411171;26;20416;-67
2024/04/08 02:19:45;;;;;;;13.73;3.03;;;;;;;14.11;100.00;96169.97;5438222;26;19999;-69
2024/04/08 02:22:10;;;;;;;16.30;3.38;;;;;;;14.07;100.00;96160.94;5444025;26;20011;-68
2024/04/08 02:24:36;;;;;;;12.07;2.97;;;;;;;14.09;100.00;96169.59;5444878;26;20075;-67
2024/04/08 02:27:02;;;;;;;19.48;3.63;;;;;;;14.12;100.00;96160.53;5422296;26;20010;-67
2024/04/08 02:29:27;;;;;;;14.93;4.18;;;;;;;14.20;100.00;96161.25;5432975;26;20010;-68
2024/04/08 02:31:53;;;;;;;15.63;3.22;;;;;;;14.23;100.00;96168.72;5433967;26;20013;-67
2024/04/08 02:34:19;;;;;;;12.90;3.17;;;;;;;14.21;100.00;96167.56;5426346;26;20002;-67
2024/04/08 02:36:45;;;;;;;17.42;3.28;;;;;;;13.89;100.00;96157.50;5456772;26;20486;-68
2024/04/08 02:39:10;;;;;;;14.43;2.90;;;;;;;13.76;100.00;96155.22;5424681;26;20010;-67
2024/04/08 02:41:36;;;;;;;21.23;3.33;;;;;;;13.82;100.00;96150.06;5430682;26;20518;-68
2024/04/08 02:44:02;;;;;;;19.35;3.15;;;;;;;13.87;100.00;96151.63;5432137;26;20113;-66
2024/04/08 02:46:27;;;;;;;18.02;3.15;;;;;;;13.98;100.00;96149.59;5430872;26;20030;-67
2024/04/08 02:48:53;;;;;;;12.15;3.50;;;;;;;13.40;100.00;96160.09;5431892;26;20014;-68
2024/04/08 02:51:18;;;;;;;13.40;3.20;;;;;;;12.55;100.00;96148.03;5426408;26;20007;-67
2024/04/08 02:53:43;;;;;;;15.20;3.55;;;;;;;12.07;100.00;96142.91;5433942;26;20003;-69
2024/04/08 02:56:09;;;;;;;16.63;3.80;;;;;;;12.02;100.00;96142.09;5427601;26;20010;-68
2024/04/08 02:58:34;;;;;;;19.80;3.10;;;;;;;12.04;100.00;96133.47;5431556;26;19995;-68
2024/04/08 03:01:09;;;;;;;13.15;3.78;;;;;;;12.09;100.00;96130.34;5427482;26;19999;-66
2024/04/08 03:03:35;;;;;;;15.07;3.72;;;;;;;12.13;100.00;96128.38;5432532;26;19999;-69
2024/04/08 03:06:10;;;;;;;14.23;3.78;;;;;;;12.27;100.00;96132.34;5433981;26;21035;-67
2024/04/08 03:08:36;;;;;;;15.45;3.88;;;;;;;12.41;100.00;96146.84;5420089;26;20007;-69
2024/04/08 03:11:03;;;;;;;26.98;3.55;;;;;;;12.47;100.00;96151.97;5428981;26;20076;-66
2024/04/08 03:13:28;;;;;;;15.45;3.20;;;;;;;12.49;100.00;96155.88;5430101;26;19998;-68
2024/04/08 03:15:54;;;;;;;18.58;3.58;;;;;;;12.55;100.00;96150.75;5462154;26;20353;-69
2024/04/08 03:18:20;;;;;;;20.70;4.03;;;;;;;12.61;100.00;96152.72;5425409;26;19995;-68
2024/04/08 03:21:03;;;;;;;20.23;3.35;;;;;;;12.54;100.00;96150.00;5431883;26;20884;-69
2024/04/08 03:23:28;;;;;;;21.27;3.75;;;;;;;12.51;100.00;96152.72;5431461;26;20010;-67
2024/04/08 03:26:06;;;;;;;15.93;3.97;;;;;;;12.68;100.00;96157.44;5422894;26;20007;-68
2024/04/08 03:28:31;;;;;;;15.15;3.78;;;;;;;12.85;100.00;96161.34;5431510;26;20014;-68
2024/04/08 03:30:57;;;;;;;16.90;3.95;;;;;;;12.78;100.00;96170.41;5431294;26;20034;-69
2024/04/08 03:33:25;;;;;;;11.60;3.17;;;;;;;12.77;100.00;96174.31;5454214;26;20610;-69
2024/04/08 03:35:51;;;;;;;23.73;3.90;;;;;;;12.81;100.00;96175.09;5433139;26;19998;-68
2024/04/08 03:38:17;;;;;;;13.52;3.60;;;;;;;12.91;100.00;96164.47;5410921;26;19999;-68
2024/04/08 03:40:44;;;;;;;11.38;3.38;;;;;;;12.83;100.00;96166.47;5432331;26;20039;-69
2024/04/08 03:43:10;;;;;;;12.00;3.80;;;;;;;12.67;100.00;96168.81;5423249;26;20341;-69
2024/04/08 03:45:37;;;;;;;11.93;3.28;;;;;;;12.55;100.00;96176.28;5435820;26;20010;-66
2024/04/08 03:48:03;;;;;;;13.57;3.20;;;;;;;12.69;100.00;96202.19;5415618;26;20002;-67
2024/04/08 03:50:29;;;;;;;16.80;3.45;;;;;;;12.65;100.00;96220.63;5443314;26;20075;-68
2024/04/08 03:52:55;;;;;;;14.70;3.47;;;;;;;12.66;100.00;96222.19;5434844;26;20007;-68
2024/04/08 03:55:28;;;;;;;14.02;3.65;;;;;;;12.36;100.00;96213.16;5425987;26;20035;-67
2024/04/08 03:57:53;;;;;;;13.02;2.88;;;;;;;12.57;100.00;96233.59;5430340;26;20002;-66
2024/04/08 04:00:19;;;;;;;22.15;4.05;;;;;;;12.68;100.00;96231.63;5446509;26;20014;-68
2024/04/08 04:02:44;;;;;;;19.20;3.45;;;;;;;12.65;100.00;96245.38;5430187;26;19999;-66
2024/04/08 04:05:10;;;;;;;24.02;3.65;;;;;;;12.84;100.00;96253.22;5427344;26;20009;-69
2024/04/08 04:07:35;;;;;;;15.32;2.95;;;;;;;12.88;100.00;96251.25;5434144;26;20076;-69
2024/04/08 04:10:04;;;;;;;17.17;4.03;;;;;;;12.55;100.00;96246.91;5429496;26;20365;-67
2024/04/08 04:12:38;;;;;;;17.98;3.15;;;;;;;12.42;100.00;96244.56;5432485;26;20010;-68
2024/04/08 04:15:05;;;;;;;15.23;3.88;;;;;;;12.44;100.00;96230.41;5427446;26;20056;-66
2024/04/08 04:17:30;;;;;;;20.23;3.58;;;;;;;12.36;100.00;96229.63;5469111;26;19999;-68
2024/04/08 04:19:56;;;;;;;17.52;3.90;;;;;;;12.40;100.00;96227.66;5439716;26;20021;-67
2024/04/08 04:22:21;;;;;;;22.33;4.60;;;;;;;12.41;100.00;96207.28;5429035;26;20538;-67
2024/04/08 04:24:47;;;;;;;23.60;3.85;;;;;;;12.36;100.00;96206.88;5436099;26;19995;-68
2024/04/08 04:27:12;;;;;;;14.55;3.70;;;;;;;12.36;100.00;96215.91;5417389;26;20006;-69
2024/04/08 04:29:37;;;;;;;18.92;4.20;;;;;;;12.36;100.00;96206.88;5434433;26;20003;-67
2024/04/08 04:32:03;;;;;;;18.85;3.35;;;;;;;12.29;100.00;96212.34;5414038;26;20010;-66
2024/04/08 04:34:28;;;;;;;15.30;3.72;;;;;;;11.93;100.00;96213.03;5433456;26;20508;-68
2024/04/08 04:36:54;;;;;;;13.13;3.40;;;;;;;11.75;100.00;96218.44;5430818;26;19999;-68
2024/04/08 04:39:19;;;;;;;21.40;3.50;;;;;;;11.70;100.00;96216.06;5425224;26;20007;-68
2024/04/08 04:41:46;;;;;;;20.25;4.20;;;;;;;11.61;100.00;96227.41;5432721;26;20003;-68
2024/04/08 04:44:11;;;;;;;11.68;4.05;;;;;;;11.72;100.00;96226.66;5426562;26;19999;-68
2024/04/08 04:46:36;;;;;;;17.73;3.72;;;;;;;11.88;100.00;96223.59;5432883;26;20030;-67
2024/04/08 04:49:02;;;;;;;17.58;4.10;;;;;;;12.14;100.00;96225.28;5395566;26;20441;-67
2024/04/08 04:51:27;;;;;;;13.82;3.47;;;;;;;12.33;100.00;96232.38;5418749;26;20661;-67
2024/04/08 04:53:54;;;;;;;16.92;3.33;;;;;;;12.55;100.00;96228.47;5460746;26;20484;-67
2024/04/08 04:56:19;;;;;;;15.77;3.25;;;;;;;12.66;100.00;96217.50;5430923;26;20083;-67
2024/04/08 04:58:44;;;;;;;16.80;4.07;;;;;;;12.53;100.00;96211.63;5434457;26;19999;-68
2024/04/08 05:01:10;;;;;;;18.42;3.72;;;;;;;12.46;100.00;96219.03;5420014;26;20096;-68
2024/04/08 05:03:35;;;;;;;19.63;3.22;;;;;;;12.41;100.00;96214.72;5440383;26;20099;-66
2024/04/08 05:06:00;;;;;;;21.52;4.05;;;;;;;12.33;100.00;96221.38;5445009;26;20669;-67
2024/04/08 05:08:26;;;;;;;24.65;3.80;;;;;;;12.26;100.00;96222.13;5436315;26;20010;-69
2024/04/08 05:10:52;;;;;;;19.85;4.20;;;;;;;12.22;100.00;96222.13;5442083;26;20014;-68
2024/04/08 05:13:18;;;;;;;17.98;3.60;;;;;;;12.46;100.00;96224.53;5424244;26;19999;-68
2024/04/08 05:16:02;;;;;;;22.35;4.40;;;;;;;12.49;100.00;96226.50;5429625;26;19999;-67
2024/04/08 05:18:29;;;;;;;17.75;3.78;;;;;;;12.69;100.00;96241.44;5415319;26;20820;-67
2024/04/08 05:20:58;;;;;;;14.43;3.85;;;;;;;12.53;100.00;96261.06;5427626;26;20452;-68
2024/04/08 05:23:25;;;;;;;27.33;5.25;;;;;;;12.34;100.00;96267.69;5425171;26;20026;-67
2024/04/08 05:25:52;;;;;;;37.08;7.20;;;;;;;12.30;100.00;96266.88;5419991;26;20008;-67
2024/04/08 05:28:17;;;;;;;19.17;5.97;;;;;;;12.28;100.00;96262.94;5422059;26;20218;-66
2024/04/08 05:30:43;;;;;;;28.85;6.68;;;;;;;12.11;100.00;96278.97;5428308;26;20122;-71
2024/04/08 05:33:09;;;;;;;18.77;6.00;;;;;;;12.14;100.00;96283.69;5420964;26;20009;-67
2024/04/08 05:35:35;;;;;;;22.90;6.40;;;;;;;12.37;100.00;96286.13;5458706;26;19999;-67
2024/04/08 05:38:01;;;;;;;31.40;6.80;;;;;;;12.52;100.00;96288.91;5426802;26;20423;-67
2024/04/08 05:40:26;;;;;;;17.60;5.10;;;;;;;12.24;100.00;96276.66;5425973;26;19999;-68
2024/04/08 05:42:53;;;;;;;23.13;5.22;;;;;;;11.69;100.00;96282.31;5428043;26;20444;-70
2024/04/08 05:45:18;;;;;;;20.77;4.28;;;;;;;12.15;100.00;96284.47;5422570;26;20071;-67
2024/04/08 05:47:44;;;;;;;18.83;4.20;;;;;;;12.64;100.00;96285.81;5431737;26;20437;-67
2024/04/08 05:50:09;;;;;;;16.98;3.83;;;;;;;13.04;100.00;96283.09;5420011;26;19995;-69
2024/04/08 05:52:35;;;;;;;18.83;4.32;;;;;;;12.17;100.00;96276.63;5430374;26;20083;-68
2024/04/08 05:55:01;;;;;;;19.77;4.10;;;;;;;11.89;100.00;96280.06;5430100;26;20006;-68
2024/04/08 05:57:27;;;;;;;21.10;4.13;;;;;;;12.12;100.00;96283.31;5454647;26;20442;-67
2024/04/08 05:59:53;;;;;;;16.90;4.47;;;;;;;12.60;100.00;96283.03;5431943;26;19999;-67
2024/04/08 06:02:18;;;;;;;15.25;3.65;;;;;;;13.10;100.00;96287.00;5411999;26;19999;-66
2024/04/08 06:04:45;;;;;;;13.85;4.90;;;;;;;12.78;100.00;96290.50;5415851;26;19999;-67
2024/04/08 06:07:11;;;;;;;17.63;3.08;;;;;;;13.25;100.00;96294.03;5408214;26;19995;-69
2024/04/08 06:09:36;;;;;;;16.80;3.70;;;;;;;13.94;100.00;96286.50;5424987;26;19994;-67
2024/04/08 06:12:02;;;;;;;16.55;3.65;;;;;;;14.61;100.00;96278.31;5430879;26;20009;-68
2024/04/08 06:14:28;;;;;;;15.07;3.75;;;;;;;14.98;100.00;96282.38;5422972;26;19995;-67
2024/04/08 06:16:53;;;;;;;23.55;3.88;;;;;;;15.55;100.00;96281.88;5426518;26;20013;-67
2024/04/08 06:19:19;;;;;;;18.88;4.35;;;;;;;14.91;100.00;96269.47;5425295;26;19998;-67
2024/04/08 06:21:44;;;;;;;18.55;3.60;;;;;;;14.12;100.00;96264.38;5431817;26;20009;-67
2024/04/08 06:24:10;;;;;;;22.92;4.03;;;;;;;14.90;100.00;96257.63;5427182;26;20441;-68
2024/04/08 06:26:36;;;;;;;16.55;4.07;;;;;;;14.54;100.00;96251.56;5448142;26;19995;-67
2024/04/08 06:29:02;;;;;;;23.77;4.68;;;;;;;14.70;100.00;96260.13;5425908;26;20346;-73
2024/04/08 06:31:30;;;;;;;22.45;4.70;;;;;;;14.84;100.00;96270.28;5425736;26;20046;-69
2024/04/08 06:33:56;;;;;;;26.27;3.85;;;;;;;14.46;100.00;96272.88;5437692;26;20010;-69
2024/04/08 06:36:24;;;;;;;23.45;3.58;;;;;;;15.45;100.00;96280.81;5422980;26;20447;-67
2024/04/08 06:38:49;;;;;;;26.85;3.90;;;;;;;16.24;100.00;96285.50;5431882;26;20003;-69
2024/04/08 06:41:17;;;;;;;16.70;3.85;;;;;;;17.16;100.00;96272.75;5423338;26;20465;-68
2024/04/08 06:43:43;;;;;;;30.48;5.55;;;;;;;18.30;100.00;96271.84;5461480;26;19999;-67
2024/04/08 06:46:08;;;;;;;19.80;3.78;;;;;;;17.38;100.00;96262.88;5440678;26;20017;-68
2024/04/08 06:48:34;;;;;;;18.98;4.00;;;;;;;17.05;100.00;96261.88;5431818;26;20068;-69
2024/04/08 06:50:59;;;;;;;23.58;4.15;;;;;;;17.45;97.36;96270.28;5401940;26;20040;-69
2024/04/08 06:53:25;;;;;;;27.38;4.03;;;;;;;16.85;97.58;96264.53;5390122;26;20014;-69
2024/04/08 06:55:51;;;;;;;24.35;4.85;;;;;;;16.87;97.56;96267.69;5397319;26;20465;-68
2024/04/08 06:58:19;;;;;;;25.90;4.57;;;;;;;16.89;93.96;96259.75;5389056;26;20000;-69
2024/04/08 07:00:48;;;;;;;20.58;4.90;;;;;;;17.00;93.09;96254.81;5371599;26;20019;-70
2024/04/08 07:03:14;;;;;;;19.35;3.92;;;;;;;17.00;91.64;96254.03;5391435;26;20015;-68
2024/04/08 07:05:41;;;;;;;19.30;3.83;;;;;;;16.31;97.42;96253.44;5398375;26;20011;-68
2024/04/08 07:08:06;;;;;;;25.25;4.43;;;;;;;16.83;96.56;96253.09;5390210;26;20019;-69
2024/04/08 07:10:32;;;;;;;19.65;4.43;;;;;;;17.19;93.92;96256.06;5397911;26;20454;-69
2024/04/08 07:12:57;;;;;;;26.20;3.75;;;;;;;16.98;94.39;96250.91;5398289;26;20023;-68
2024/04/08 07:15:23;;;;;;;25.98;4.43;;;;;;;16.81;96.93;96255.47;5383521;26;20003;-69
2024/04/08 07:17:48;;;;;;;37.53;5.95;;;;;;;17.77;92.86;96249.50;5381906;26;19999;-69
2024/04/08 07:20:14;;;;;;;35.25;6.05;;;;;;;18.13;84.52;96257.16;5392145;26;19988;-69
2024/04/08 07:22:39;;;;;;;25.52;4.00;;;;;;;17.22;89.88;96257.22;5389832;26;20011;-70
2024/04/08 07:25:05;;;;;;;24.60;4.30;;;;;;;17.55;90.13;96249.13;5379312;26;20000;-69
2024/04/08 07:27:30;;;;;;;19.30;3.75;;;;;;;19.06;78.88;96255.09;5359278;26;19995;-70
2024/04/08 07:29:56;;;;;;;21.00;3.42;;;;;;;19.31;77.72;96264.81;5331293;26;20012;-73
2024/04/08 07:32:22;;;;;;;21.90;4.20;;;;;;;19.59;74.24;96266.09;5379373;26;20836;-69
2024/04/08 07:34:47;;;;;;;29.20;4.07;;;;;;;17.68;91.06;96252.06;5368718;26;20496;-69
2024/04/08 07:37:13;;;;;;;22.65;3.97;;;;;;;18.20;90.10;96256.22;5389745;26;20057;-69
2024/04/08 07:39:39;;;;;;;32.95;4.65;;;;;;;18.81;86.16;96252.13;5404296;26;19997;-69
2024/04/08 07:42:05;;;;;;;27.73;4.40;;;;;;;19.35;80.90;96251.63;5369749;26;20007;-69
2024/04/08 07:44:30;;;;;;;36.35;5.03;;;;;;;18.63;87.26;96250.53;5374154;26;20010;-70
2024/04/08 07:46:55;;;;;;;25.17;4.75;;;;;;;18.65;87.70;96239.00;5430609;26;20039;-69
2024/04/08 07:49:22;;;;;;;29.77;4.03;;;;;;;18.27;84.99;96242.22;5429572;26;20002;-69
2024/04/08 07:51:48;;;;;;;44.25;5.38;;;;;;;18.85;84.55;96238.97;5446467;26;20035;-69
2024/04/08 07:54:14;;;;;;;27.98;4.18;;;;;;;19.03;86.13;96242.13;5456589;26;19999;-70
2024/04/08 07:56:40;;;;;;;26.35;3.92;;;;;;;19.28;82.85;96237.91;5436747;26;20028;-70
2024/04/08 07:59:06;;;;;;;21.67;4.40;;;;;;;18.80;87.14;96231.94;5406311;26;20000;-70
2024/04/08 08:01:31;;;;;;;29.65;4.68;;;;;;;19.34;83.19;96238.16;5428425;26;20009;-70
2024/04/08 08:03:57;;;;;;;24.38;4.13;;;;;;;18.82;82.96;96231.53;5431936;26;19995;-70
2024/04/08 08:06:23;;;;;;;22.70;3.60;;;;;;;19.39;82.61;96234.88;5410865;26;19995;-71
2024/04/08 08:08:48;;;;;;;27.85;3.97;;;;;;;19.77;80.18;96239.84;5432575;26;20071;-69
2024/04/08 08:11:14;;;;;;;26.73;4.18;;;;;;;20.07;75.56;96241.38;5454382;26;20010;-69
2024/04/08 08:13:39;;;;;;;22.90;4.07;;;;;;;20.56;74.64;96251.47;5432114;26;20003;-70
2024/04/08 08:16:05;;;;;;;29.33;4.00;;;;;;;20.48;72.75;96252.94;5423401;26;20398;-70
2024/04/08 08:18:31;;;;;;;16.85;3.22;;;;;;;20.80;70.63;96243.63;5432030;26;19994;-69
2024/04/08 08:20:58;;;;;;;33.10;4.28;;;;;;;20.02;72.03;96247.47;5419021;26;19999;-70
2024/04/08 08:23:23;;;;;;;25.75;3.75;;;;;;;18.87;82.61;96234.56;5425679;26;20006;-71
2024/04/08 08:25:49;;;;;;;29.52;4.15;;;;;;;18.59;87.52;96227.66;5426033;26;20028;-70
2024/04/08 08:28:15;;;;;;;26.67;5.40;;;;;;;18.78;84.51;96236.31;5452334;26;20072;-69
2024/04/08 08:30:40;;;;;;;17.27;3.65;;;;;;;18.74;84.99;96236.41;5412639;26;20009;-70
2024/04/08 08:33:06;;;;;;;16.13;3.42;;;;;;;18.96;83.44;96233.16;5414402;26;20434;-70
2024/04/08 08:35:32;;;;;;;22.27;3.80;;;;;;;18.97;84.12;96231.97;5407897;26;20038;-70
2024/04/08 08:38:01;;;;;;;29.08;4.03;;;;;;;19.52;81.65;96226.59;5419859;26;20032;-69
2024/04/08 08:40:27;;;;;;;36.20;4.50;;;;;;;19.74;80.08;96232.41;5414848;26;20441;-70
2024/04/08 08:42:55;;;;;;;17.88;3.78;;;;;;;20.21;76.29;96226.31;5431735;26;20074;-70
2024/04/08 08:45:21;;;;;;;18.70;3.28;;;;;;;21.02;68.47;96238.16;5455987;26;20526;-70
2024/04/08 08:47:46;;;;;;;24.63;3.25;;;;;;;21.34;65.00;96230.75;5417314;26;20464;-71
2024/04/08 08:50:12;;;;;;;21.35;3.97;;;;;;;20.04;67.85;96226.38;5410931;26;20337;-69
2024/04/08 08:52:38;;;;;;;22.88;3.78;;;;;;;19.78;69.02;96219.19;5433422;26;19995;-70
2024/04/08 08:55:04;;;;;;;22.05;3.45;;;;;;;19.91;71.84;96216.44;5424423;26;19995;-69
2024/04/08 08:57:30;;;;;;;22.87;3.97;;;;;;;20.34;65.90;96226.31;5460613;26;20010;-69
2024/04/08 08:59:57;;;;;;;21.73;3.80;;;;;;;20.38;65.76;96225.00;5431357;26;20388;-70
2024/04/08 09:02:25;;;;;;;15.15;3.75;;;;;;;21.08;64.48;96224.44;5399761;26;20612;-70
2024/04/08 09:04:51;;;;;;;14.18;3.13;;;;;;;20.79;65.11;96228.91;5430291;26;20782;-70
2024/04/08 09:07:16;;;;;;;27.33;3.97;;;;;;;21.77;63.43;96216.13;5402576;26;20018;-70
2024/04/08 09:09:53;;;;;;;31.98;4.15;;;;;;;20.84;61.66;96213.69;5410073;26;20720;-69
2024/04/08 09:12:19;;;;;;;20.38;3.97;;;;;;;21.51;60.39;96211.88;5409190;26;20448;-70
2024/04/08 09:14:46;;;;;;;25.83;3.97;;;;;;;20.99;61.16;96212.00;5419134;26;19999;-70
2024/04/08 09:17:11;;;;;;;25.80;5.00;;;;;;;20.81;63.12;96212.59;5426598;26;19999;-71
2024/04/08 09:19:37;;;;;;;27.92;4.60;;;;;;;21.07;63.60;96197.81;5448661;26;20338;-70
2024/04/08 09:22:05;;;;;;;24.08;3.20;;;;;;;20.77;64.39;96202.78;5411573;26;20007;-70
2024/04/08 09:24:32;;;;;;;32.13;4.70;;;;;;;20.91;63.56;96193.19;5433410;26;20142;-70
2024/04/08 09:26:57;;;;;;;26.80;3.95;;;;;;;21.64;58.89;96183.97;5425188;26;20031;-70
2024/04/08 09:29:23;;;;;;;24.60;4.57;;;;;;;22.14;57.47;96187.72;5413691;26;20024;-69
2024/04/08 09:31:49;;;;;;;30.23;4.38;;;;;;;22.42;54.57;96185.09;5433124;26;19999;-70
2024/04/08 09:34:14;;;;;;;29.90;4.15;;;;;;;22.88;54.37;96191.63;5423745;26;20016;-70
2024/04/08 09:36:40;;;;;;;18.55;3.83;;;;;;;22.07;55.38;96191.53;5441248;26;20009;-70
2024/04/08 09:39:08;;;;;;;30.52;4.18;;;;;;;21.69;54.15;96184.16;5421750;26;19996;-72
2024/04/08 09:41:36;;;;;;;21.45;4.47;;;;;;;21.53;56.03;96173.97;5436549;26;19999;-68
2024/04/08 09:44:02;;;;;;;29.02;4.25;;;;;;;21.32;58.51;96183.84;5410198;26;20034;-71
2024/04/08 09:46:28;;;;;;;29.23;4.28;;;;;;;21.73;56.21;96167.31;5413444;26;20014;-69
2024/04/08 09:48:54;;;;;;;28.30;3.53;;;;;;;22.00;57.90;96174.31;5433642;26;20104;-70
2024/04/08 09:51:20;;;;;;;27.13;4.05;;;;;;;22.43;54.93;96175.50;5390899;26;20010;-71
2024/04/08 09:53:46;;;;;;;20.55;4.32;;;;;;;21.85;59.03;96177.63;5415287;26;19996;-70
2024/04/08 09:56:16;;;;;;;26.80;4.15;;;;;;;21.67;59.51;96161.56;5428007;26;20039;-70
2024/04/08 09:59:19;;;;;;;26.75;3.65;;;;;;;21.86;62.94;96156.91;5434373;26;19999;-71
2024/04/08 10:01:45;;;;;;;24.83;3.92;;;;;;;22.69;58.61;96168.47;5358053;26;20012;-70
2024/04/08 10:04:22;;;;;;;32.35;3.85;;;;;;;23.15;56.52;96151.06;5384805;26;20003;-69
2024/04/08 10:06:49;;;;;;;29.15;4.68;;;;;;;23.63;56.10;96154.19;5386405;26;20015;-71
2024/04/08 10:09:15;;;;;;;26.65;4.28;;;;;;;23.15;56.09;96153.09;5384881;26;20014;-70
2024/04/08 10:11:51;;;;;;;33.65;4.70;;;;;;;22.95;51.75;96150.69;5392568;26;20021;-70
2024/04/08 10:14:23;;;;;;;25.88;4.20;;;;;;;22.78;50.53;96152.97;5391926;26;20004;-69
2024/04/08 10:16:52;;;;;;;17.80;3.95;;;;;;;23.07;53.28;96145.00;5398859;26;20063;-69
2024/04/08 10:19:21;;;;;;;21.33;4.07;;;;;;;22.94;54.36;96132.38;5393751;26;20019;-68
2024/04/08 10:21:46;;;;;;;34.33;4.07;;;;;;;22.89;51.46;96125.41;5386623;26;19999;-69
2024/04/08 10:24:31;;;;;;;30.30;4.65;;;;;;;23.47;50.91;96129.34;5393020;26;20518;-70
2024/04/08 10:27:07;;;;;;;27.63;4.50;;;;;;;23.52;50.92;96123.13;5395737;26;20000;-70
2024/04/08 10:29:35;;;;;;;31.80;4.03;;;;;;;24.24;50.00;96114.31;5363922;26;20049;-69
2024/04/08 10:32:03;;;;;;;29.50;3.85;;;;;;;24.10;47.90;96115.75;5395772;26;20011;-70
2024/04/08 10:34:28;;;;;;;29.90;4.35;;;;;;;23.95;48.20;96117.66;5399588;26;20399;-70
2024/04/08 10:36:55;;;;;;;26.27;4.20;;;;;;;24.53;46.82;96108.16;5424554;26;19999;-70
2024/04/08 10:39:26;;;;;;;23.33;3.63;;;;;;;25.41;46.98;96106.19;5361582;26;20040;-75
2024/04/08 10:41:57;;;;;;;28.40;4.55;;;;;;;25.02;42.61;96100.53;5396778;26;20014;-70
2024/04/08 10:44:23;;;;;;;32.17;6.05;;;;;;;24.57;43.60;96093.97;5389028;26;20525;-71
2024/04/08 10:46:49;;;;;;;23.85;4.15;;;;;;;25.46;44.11;96087.91;5403283;26;20010;-69
2024/04/08 10:49:15;;;;;;;24.38;4.00;;;;;;;25.28;44.23;96089.66;5368123;26;19999;-70
2024/04/08 10:51:43;;;;;;;35.70;4.07;;;;;;;25.38;42.45;96093.13;5403485;26;20012;-70
2024/04/08 10:54:08;;;;;;;24.15;3.85;;;;;;;25.58;42.28;96094.50;5392624;26;20077;-70
2024/04/08 10:56:33;;;;;;;24.08;3.65;;;;;;;25.24;42.27;96091.84;5425048;26;20438;-71
2024/04/08 10:58:59;;;;;;;23.70;3.28;;;;;;;25.34;41.90;96098.16;5398097;26;20323;-70
2024/04/08 11:01:25;;;;;;;22.52;3.75;;;;;;;25.43;41.96;96092.47;5373772;26;20351;-70
2024/04/08 11:03:51;;;;;;;32.50;4.30;;;;;;;25.77;41.99;96093.09;5379559;26;19999;-70
2024/04/08 11:06:17;;;;;;;27.92;3.80;;;;;;;25.98;38.61;96099.56;5390969;26;20053;-70
2024/04/08 11:08:43;;;;;;;32.20;4.65;;;;;;;26.24;39.89;96096.94;5399018;26;20212;-69
2024/04/08 11:11:08;;;;;;;32.47;4.13;;;;;;;26.42;38.71;96093.16;5388251;26;20000;-69
2024/04/08 11:13:33;;;;;;;26.38;3.53;;;;;;;26.24;39.62;96090.56;5396969;26;20003;-68
2024/04/08 11:15:59;;;;;;;29.35;4.20;;;;;;;26.25;40.33;96090.09;5399256;26;20782;-70